Flight Track Log - Related Links

Times and Time Zones

All times are in EDT time to prevent confusion due to time zone crossing. See the TAM3219 flight status page for this flight to view local times or setup timezone preferences in your user account.

Time Position Orientation Groundspeed Altitude Reporting Facility
EDT Latitude Longitude Course Direction KTS MPH feet Rate Location/Type
Sat 04:00:00 PM -21.3216 -45.0830 212° Southwest  Level Estimated
Sat 04:01:00 PM -21.3918 -45.1300 212° Southwest  Level Estimated
Sat 04:02:00 PM -21.4620 -45.1770 212° Southwest  Level Estimated
Sat 04:03:00 PM -21.5321 -45.2240 212° Southwest  Level Estimated
Sat 04:04:00 PM -21.6023 -45.2711 212° Southwest  Level Estimated
Sat 04:05:00 PM -21.6724 -45.3183 212° Southwest  Level Estimated
Sat 04:06:00 PM -21.7425 -45.3655 212° Southwest  Level Estimated
Sat 04:07:00 PM -21.8126 -45.4127 212° Southwest  Level Estimated
Sat 04:08:00 PM -21.8827 -45.4600 212° Southwest  Level Estimated
Sat 04:09:00 PM -21.9527 -45.5073 212° Southwest  Level Estimated
Sat 04:10:00 PM -22.0228 -45.5547 212° Southwest  Level Estimated
Sat 04:11:00 PM -22.0928 -45.6021 212° Southwest  Level Estimated
Sat 04:12:00 PM -22.1628 -45.6496 212° Southwest  Level Estimated
Sat 04:13:00 PM -22.2328 -45.6971 212° Southwest  Level Estimated
Sat 04:14:00 PM -22.3029 -45.7447 212° Southwest  Level Estimated
Sat 04:15:00 PM -22.3728 -45.7923 212° Southwest  Level Estimated
Sat 04:16:00 PM -22.4428 -45.8399 212° Southwest  Level Estimated
Sat 04:17:00 PM -22.5128 -45.8876 212° Southwest  Level Estimated
Sat 04:18:00 PM -22.5827 -45.9354 212° Southwest  Level Estimated
Sat 04:19:00 PM -22.6526 -45.9832 212° Southwest  Level Estimated
Sat 04:20:00 PM -22.7225 -46.0311 212° Southwest  Level Estimated
Sat 04:21:00 PM -22.7924 -46.0790 212° Southwest  Level Estimated
Sat 04:22:00 PM -22.8623 -46.1269 212° Southwest  Level Estimated
Sat 04:23:00 PM -22.9322 -46.1749 212° Southwest  Level Estimated
Sat 04:24:00 PM -23.0020 -46.2230 212° Southwest  Level Estimated
Sat 04:25:00 PM -23.0719 -46.2711 212° Southwest  Level Estimated
Sat 04:26:00 PM -23.1417 -46.3192 212° Southwest  Level Estimated
Sat 04:27:00 PM -23.2115 -46.3674 212° Southwest  Level Estimated
Sat 04:28:00 PM -23.2813 -46.4157 212° Southwest  Level Estimated
Sat 04:29:00 PM -23.3511 -46.4640 212° Southwest  Level Estimated
Sat 04:30:00 PM -23.4209 -46.5124 212° Southwest  Level Estimated
Sat 04:31:00 PM -23.4906 -46.5608 212° Southwest  Level Estimated
Sat 04:32:00 PM -23.5604 -46.6092 212° Southwest  Level Estimated
Sat 04:33:00 PM -23.6267 -46.6554 213° Southwest  Level Estimated
Sat 04:34:00 PM -23.6267 -46.6554 114° Southeast  Level Estimated
Sat 04:35:00 PM -23.6267 -46.6554 114° Southeast  Level Estimated
Sat 04:36:00 PM -23.6267 -46.6554 114° Southeast  Level Estimated
Sat 04:37:00 PM -23.6267 -46.6554 114° Southeast  Level Estimated
Sat 04:38:00 PM -23.6267 -46.6554 114° Southeast  Level Estimated
Sat 04:39:00 PM -23.6267 -46.6554 114° Southeast  Level Estimated
Sat 04:40:00 PM -23.6267 -46.6554 114° Southeast  Level Estimated
Sat 04:41:00 PM -23.6267 -46.6554 114° Southeast  Level Estimated
Sat 04:42:00 PM -23.6267 -46.6554 114° Southeast  Level Estimated
Sat 04:43:00 PM -23.6267 -46.6554 114° Southeast  Level Estimated
Sat 04:44:00 PM -23.6267 -46.6554 114° Southeast  Level Estimated
Sat 04:45:00 PM -23.6267 -46.6554 114° Southeast  Level Estimated
Sat 04:46:00 PM -23.6267 -46.6554 114° Southeast  Level Estimated

Login

Don't have an account? Register now (free) for customized features, flight alerts, and more!